createdAt,value
2022-12-03T00:00:53.310Z,54.65
2022-12-03T00:01:56.169Z,56.60
2022-12-03T00:02:58.905Z,52.00
2022-12-03T00:04:01.621Z,57.30
2022-12-03T00:05:04.594Z,50.38
2022-12-03T00:06:07.398Z,47.80
2022-12-03T00:07:10.358Z,53.17
2022-12-03T00:08:13.150Z,47.87
2022-12-03T00:09:17.038Z,46.42
2022-12-03T00:10:20.241Z,53.38
2022-12-03T00:11:22.722Z,57.50
2022-12-03T00:12:25.595Z,56.50
2022-12-03T00:13:28.733Z,48.22
2022-12-03T00:14:31.370Z,52.15
2022-12-03T00:15:33.942Z,54.38
2022-12-03T00:16:36.965Z,56.37
2022-12-03T00:17:40.465Z,53.23
2022-12-03T00:18:43.220Z,48.65
2022-12-03T00:19:45.821Z,51.80
2022-12-03T00:20:48.946Z,47.47
2022-12-03T00:21:51.476Z,50.88
2022-12-03T00:22:54.397Z,51.53
2022-12-03T00:23:57.242Z,54.05
2022-12-03T00:24:59.815Z,47.35
2022-12-03T00:26:02.473Z,51.42
2022-12-03T00:27:05.549Z,49.40
2022-12-03T00:28:08.416Z,51.50
2022-12-03T00:29:11.376Z,50.83
2022-12-03T00:30:14.516Z,52.28
2022-12-03T00:31:18.738Z,53.87
2022-12-03T00:32:21.475Z,47.40
2022-12-03T00:33:24.602Z,50.35
2022-12-03T00:34:27.198Z,47.97
2022-12-03T00:35:29.858Z,55.85
2022-12-03T00:36:32.973Z,52.55
2022-12-03T00:37:35.553Z,48.75
2022-12-03T00:38:38.428Z,52.33
2022-12-03T00:39:40.965Z,47.80
2022-12-03T00:40:44.023Z,53.75
2022-12-03T00:41:47.423Z,52.03
2022-12-03T00:42:49.961Z,50.35
2022-12-03T00:43:57.422Z,46.30
2022-12-03T00:45:00.222Z,44.25
2022-12-03T00:46:02.822Z,49.53
2022-12-03T00:47:06.091Z,51.70
2022-12-03T00:48:08.702Z,47.72
2022-12-03T00:49:11.503Z,52.50
2022-12-03T00:50:14.374Z,44.60
2022-12-03T00:51:17.042Z,49.08
2022-12-03T00:52:19.637Z,49.42
2022-12-03T00:53:22.687Z,50.97
2022-12-03T00:54:31.402Z,50.25
2022-12-03T00:55:34.585Z,51.35
2022-12-03T00:56:37.486Z,47.88
2022-12-03T00:57:40.145Z,48.80
2022-12-03T00:58:43.098Z,43.65
2022-12-03T00:59:45.986Z,47.27
2022-12-03T01:00:49.079Z,49.10
2022-12-03T01:01:51.815Z,46.80
2022-12-03T01:02:54.519Z,43.42
2022-12-03T01:03:57.507Z,46.17
2022-12-03T01:05:00.885Z,48.17
2022-12-03T01:06:03.953Z,52.72
2022-12-03T01:07:07.011Z,45.67
2022-12-03T01:08:09.670Z,44.85
2022-12-03T01:09:12.303Z,46.45
2022-12-03T01:10:15.561Z,43.70
2022-12-03T01:11:37.238Z,46.22
2022-12-03T01:12:40.051Z,45.60
2022-12-03T01:13:42.598Z,47.10
2022-12-03T01:14:46.499Z,47.88
2022-12-03T01:15:49.405Z,46.05
2022-12-03T01:16:52.094Z,44.13
2022-12-03T01:17:55.220Z,45.67
2022-12-03T01:18:57.848Z,43.40
2022-12-03T01:20:01.670Z,46.55
2022-12-03T01:21:05.083Z,46.73
2022-12-03T01:22:08.493Z,47.30
2022-12-03T01:23:11.040Z,41.88
2022-12-03T01:24:14.421Z,43.15
2022-12-03T01:25:17.979Z,43.35
2022-12-03T01:26:20.829Z,43.92
2022-12-03T01:27:23.443Z,47.22
2022-12-03T01:28:27.039Z,41.75
2022-12-03T01:29:29.647Z,43.15
2022-12-03T01:30:52.717Z,44.60
2022-12-03T01:32:14.356Z,41.80
2022-12-03T01:33:16.909Z,43.77
2022-12-03T01:34:20.063Z,44.10
2022-12-03T01:35:22.645Z,43.33
2022-12-03T01:36:26.016Z,43.13
2022-12-03T01:37:28.988Z,44.53
2022-12-03T01:38:31.937Z,44.28
2022-12-03T01:39:34.517Z,46.63
2022-12-03T01:40:37.580Z,42.13
2022-12-03T01:41:40.908Z,40.47
2022-12-03T01:42:44.107Z,42.53
2022-12-03T01:43:48.102Z,38.63
2022-12-03T01:44:56.023Z,40.97
2022-12-03T01:45:58.783Z,42.45
2022-12-03T01:47:06.366Z,39.72
2022-12-03T01:48:13.013Z,41.25
2022-12-03T01:49:20.389Z,39.33
2022-12-03T01:50:32.115Z,40.72
2022-12-03T01:51:34.667Z,44.90
2022-12-03T01:52:39.076Z,40.20
2022-12-03T01:53:43.820Z,38.80
2022-12-03T01:54:51.125Z,38.67
2022-12-03T01:55:54.091Z,39.28
2022-12-03T01:56:57.927Z,35.70
2022-12-03T01:58:02.277Z,39.22
2022-12-03T01:59:05.738Z,40.42
2022-12-03T02:00:17.062Z,37.78
2022-12-03T02:01:19.945Z,42.70
2022-12-03T02:02:31.523Z,36.42
2022-12-03T02:03:34.510Z,42.15
2022-12-03T02:04:37.387Z,37.27
2022-12-03T02:05:39.976Z,36.87
2022-12-03T02:06:45.664Z,36.85
2022-12-03T02:07:48.627Z,40.80
2022-12-03T02:08:51.483Z,36.00
2022-12-03T02:09:56.827Z,38.97
2022-12-03T02:11:04.463Z,36.00
2022-12-03T02:12:07.090Z,40.10
2022-12-03T02:13:10.784Z,40.33
2022-12-03T02:14:19.115Z,39.30
2022-12-03T02:15:22.085Z,38.67
2022-12-03T02:16:25.356Z,39.07
2022-12-03T02:17:28.637Z,37.55
2022-12-03T02:18:31.395Z,36.83
2022-12-03T02:19:34.565Z,39.35
2022-12-03T02:20:56.175Z,38.67
2022-12-03T02:22:18.031Z,41.40
2022-12-03T02:23:36.318Z,35.95
2022-12-03T02:24:56.507Z,34.88
2022-12-03T02:25:59.726Z,37.42
2022-12-03T02:27:03.649Z,34.73
2022-12-03T02:28:08.961Z,39.33
2022-12-03T02:29:11.938Z,39.78
2022-12-03T02:30:19.132Z,40.33
2022-12-03T02:31:23.414Z,36.78
2022-12-03T02:32:26.174Z,36.97
2022-12-03T02:33:28.739Z,39.35
2022-12-03T02:34:34.655Z,40.53
2022-12-03T02:35:38.375Z,37.72
2022-12-03T02:36:41.215Z,37.55
2022-12-03T02:37:46.624Z,38.57
2022-12-03T02:38:50.520Z,36.38
2022-12-03T02:39:58.882Z,36.63
2022-12-03T02:41:06.777Z,38.25
2022-12-03T02:42:29.906Z,39.22
2022-12-03T02:43:32.761Z,38.25
2022-12-03T02:44:35.939Z,39.20
2022-12-03T02:45:41.382Z,40.40
2022-12-03T02:46:44.641Z,36.40
2022-12-03T02:47:54.715Z,40.12
2022-12-03T02:48:58.117Z,36.67
2022-12-03T02:50:01.379Z,39.47
2022-12-03T02:51:07.996Z,35.15
2022-12-03T02:52:11.021Z,35.03
2022-12-03T02:53:24.911Z,41.05
2022-12-03T02:54:27.444Z,35.25
2022-12-03T02:55:36.770Z,37.65
2022-12-03T02:56:40.501Z,38.85
2022-12-03T02:57:46.635Z,36.05
2022-12-03T02:58:53.339Z,41.08
2022-12-03T02:59:56.389Z,39.33
2022-12-03T03:01:00.840Z,36.67
2022-12-03T03:02:04.231Z,41.25
2022-12-03T03:03:08.315Z,43.25
2022-12-03T03:04:11.351Z,50.00
2022-12-03T03:05:16.141Z,44.45
2022-12-03T03:06:19.719Z,72.32
2022-12-03T03:07:23.075Z,73.72
2022-12-03T03:08:27.356Z,76.10
2022-12-03T03:09:30.516Z,72.18
2022-12-03T03:10:35.362Z,64.90
2022-12-03T03:11:38.429Z,60.67
2022-12-03T03:12:41.212Z,54.22
2022-12-03T03:13:44.093Z,48.25
2022-12-03T03:14:47.203Z,53.95
2022-12-03T03:15:50.429Z,49.17
2022-12-03T03:16:56.282Z,47.97
2022-12-03T03:17:59.035Z,50.47
2022-12-03T03:19:02.655Z,54.20
2022-12-03T03:20:07.012Z,48.97
2022-12-03T03:21:09.723Z,41.20
2022-12-03T03:22:12.653Z,41.10
2022-12-03T03:23:18.997Z,41.53
2022-12-03T03:24:22.490Z,38.20
2022-12-03T03:25:25.410Z,38.72
2022-12-03T03:26:28.816Z,44.83
2022-12-03T03:27:31.525Z,39.42
2022-12-03T03:28:40.438Z,41.05
2022-12-03T03:29:43.433Z,41.90
2022-12-03T03:30:47.261Z,40.67
2022-12-03T03:31:50.093Z,42.03
2022-12-03T03:32:53.180Z,37.77
2022-12-03T03:33:56.192Z,44.30
2022-12-03T03:34:59.040Z,41.13
2022-12-03T03:36:02.564Z,40.83
2022-12-03T03:37:05.308Z,36.70
2022-12-03T03:38:09.464Z,40.08
2022-12-03T03:39:13.059Z,41.33
2022-12-03T03:40:15.756Z,38.42
2022-12-03T03:41:21.021Z,43.97
2022-12-03T03:42:24.235Z,45.43
2022-12-03T03:43:28.114Z,42.53
2022-12-03T03:44:30.822Z,40.05
2022-12-03T03:45:33.718Z,41.20
2022-12-03T03:46:38.420Z,42.15
2022-12-03T03:47:41.719Z,46.78
2022-12-03T03:48:44.456Z,49.00
2022-12-03T03:49:49.598Z,46.53
2022-12-03T03:50:52.855Z,45.92
2022-12-03T03:51:55.778Z,41.25
2022-12-03T03:53:02.668Z,41.60
2022-12-03T03:54:06.102Z,35.83
2022-12-03T03:55:11.793Z,40.83
2022-12-03T03:56:16.235Z,41.50
2022-12-03T03:57:20.634Z,40.97
2022-12-03T03:58:23.380Z,35.95
2022-12-03T03:59:26.014Z,40.40
2022-12-03T04:00:30.430Z,37.78
2022-12-03T04:01:33.902Z,38.38
2022-12-03T04:02:36.660Z,37.00
2022-12-03T04:03:40.199Z,40.53
2022-12-03T04:04:42.774Z,40.43
2022-12-03T04:05:45.358Z,39.30
2022-12-03T04:06:49.476Z,40.67
2022-12-03T04:07:52.394Z,41.25
2022-12-03T04:08:55.492Z,38.30
2022-12-03T04:09:58.031Z,39.83
2022-12-03T04:11:20.299Z,41.90
2022-12-03T04:12:41.741Z,37.03
2022-12-03T04:13:44.320Z,47.17
2022-12-03T04:14:46.832Z,40.60
2022-12-03T04:15:50.757Z,42.00
2022-12-03T04:16:53.387Z,42.00
2022-12-03T04:18:15.425Z,38.00
2022-12-03T04:19:18.128Z,37.63
2022-12-03T04:20:21.071Z,36.35
2022-12-03T04:21:42.792Z,39.78
2022-12-03T04:22:45.327Z,40.88
2022-12-03T04:23:48.111Z,39.55
2022-12-03T04:24:51.459Z,39.60
2022-12-03T04:26:12.895Z,37.53
2022-12-03T04:27:34.829Z,43.13
2022-12-03T04:28:49.602Z,40.88
2022-12-03T04:29:52.442Z,38.92
2022-12-03T04:30:55.481Z,40.50
2022-12-03T04:32:16.735Z,40.47
2022-12-03T04:33:38.261Z,40.97
2022-12-03T04:34:59.967Z,38.47
2022-12-03T04:36:03.019Z,38.90
2022-12-03T04:37:06.477Z,41.70
2022-12-03T04:38:13.170Z,44.93
2022-12-03T04:39:15.697Z,41.97
2022-12-03T04:40:36.868Z,48.33
2022-12-03T04:41:39.786Z,42.25
2022-12-03T04:42:42.632Z,48.08
2022-12-03T04:44:04.347Z,42.20
2022-12-03T04:45:07.872Z,45.42
2022-12-03T04:46:11.069Z,43.55
2022-12-03T04:47:19.410Z,41.90
2022-12-03T04:48:22.807Z,41.30
2022-12-03T04:49:25.798Z,43.10
2022-12-03T04:50:28.659Z,42.00
2022-12-03T04:51:31.258Z,36.28
2022-12-03T04:52:34.884Z,41.67
2022-12-03T04:53:40.754Z,40.47
2022-12-03T04:54:48.498Z,47.15
2022-12-03T04:55:51.016Z,42.95
2022-12-03T04:56:53.739Z,39.80
2022-12-03T04:57:56.860Z,40.80
2022-12-03T04:58:59.934Z,41.08
2022-12-03T05:00:03.052Z,44.10
2022-12-03T05:01:06.632Z,42.33
2022-12-03T05:02:09.979Z,40.63
2022-12-03T05:03:13.299Z,39.63
2022-12-03T05:04:16.400Z,39.33
2022-12-03T05:05:19.124Z,36.58
2022-12-03T05:06:22.331Z,35.83
2022-12-03T05:07:24.922Z,40.50
2022-12-03T05:08:27.934Z,40.47
2022-12-03T05:09:31.638Z,36.38
2022-12-03T05:10:34.289Z,39.90
2022-12-03T05:11:36.995Z,37.27
2022-12-03T05:12:39.851Z,34.65
2022-12-03T05:13:43.292Z,38.80
2022-12-03T05:14:46.000Z,38.67
2022-12-03T05:15:49.015Z,43.85
2022-12-03T05:16:51.676Z,41.35
2022-12-03T05:17:54.974Z,38.88
2022-12-03T05:18:58.343Z,37.15
2022-12-03T05:20:19.639Z,31.73
2022-12-03T05:21:22.369Z,39.27
2022-12-03T05:22:24.963Z,42.20
2022-12-03T05:23:28.222Z,41.47
2022-12-03T05:24:31.040Z,41.05
2022-12-03T05:25:33.660Z,42.30
2022-12-03T05:26:36.614Z,50.10
2022-12-03T05:27:39.238Z,40.67
2022-12-03T05:28:41.922Z,38.88
2022-12-03T05:29:44.847Z,42.25
2022-12-03T05:30:47.569Z,39.42
2022-12-03T05:31:50.167Z,37.57
2022-12-03T05:32:52.928Z,42.90
2022-12-03T05:33:55.547Z,36.88
2022-12-03T05:34:58.452Z,33.97
2022-12-03T05:36:01.706Z,79.72
2022-12-03T05:37:04.982Z,107.18
2022-12-03T05:38:08.140Z,85.32
2022-12-03T05:39:10.654Z,64.60
2022-12-03T05:40:15.075Z,55.70
2022-12-03T05:41:36.174Z,40.55
2022-12-03T05:42:54.337Z,38.13
2022-12-03T05:43:56.996Z,42.42
2022-12-03T05:44:59.541Z,49.20
2022-12-03T05:46:02.408Z,49.15
2022-12-03T05:47:05.662Z,49.20
2022-12-03T05:48:10.711Z,42.45
2022-12-03T05:49:13.835Z,39.30
2022-12-03T05:50:16.787Z,40.80
2022-12-03T05:51:19.683Z,38.30
2022-12-03T05:52:22.190Z,35.10
2022-12-03T05:53:29.475Z,37.80
2022-12-03T05:54:32.519Z,32.35
2022-12-03T05:55:35.092Z,41.35
2022-12-03T05:56:39.272Z,33.50
2022-12-03T05:57:42.106Z,37.78
2022-12-03T05:58:45.266Z,45.33
2022-12-03T05:59:47.926Z,44.85
2022-12-03T06:00:50.504Z,40.60
2022-12-03T06:01:53.418Z,36.83
2022-12-03T06:02:57.340Z,35.92
2022-12-03T06:04:00.123Z,36.67
2022-12-03T06:05:03.088Z,37.45
2022-12-03T06:06:05.984Z,35.35
2022-12-03T06:07:13.783Z,39.40
2022-12-03T06:08:17.023Z,62.10
2022-12-03T06:09:25.157Z,47.95
2022-12-03T06:10:27.813Z,42.97
2022-12-03T06:11:30.480Z,41.85
2022-12-03T06:12:33.330Z,37.15
2022-12-03T06:13:35.934Z,32.70
2022-12-03T06:14:38.457Z,40.27
2022-12-03T06:15:43.888Z,36.95
2022-12-03T06:16:46.865Z,40.90
2022-12-03T06:17:50.078Z,33.85
2022-12-03T06:18:52.638Z,36.42
2022-12-03T06:19:55.188Z,38.70
2022-12-03T06:20:57.781Z,34.55
2022-12-03T06:22:00.425Z,36.22
2022-12-03T06:23:03.356Z,36.88
2022-12-03T06:24:06.250Z,37.05
2022-12-03T06:25:10.028Z,42.47
2022-12-03T06:26:13.863Z,54.17
2022-12-03T06:27:16.541Z,58.92
2022-12-03T06:28:19.576Z,56.58
2022-12-03T06:29:22.140Z,47.13
2022-12-03T06:30:25.192Z,70.32
2022-12-03T06:31:27.816Z,54.50
2022-12-03T06:32:31.106Z,61.75
2022-12-03T06:33:34.241Z,53.45
2022-12-03T06:34:37.482Z,51.67
2022-12-03T06:35:40.466Z,51.07
2022-12-03T06:36:43.173Z,49.58
2022-12-03T06:37:45.819Z,46.75
2022-12-03T06:38:48.647Z,40.03
2022-12-03T06:39:51.799Z,41.30
2022-12-03T06:40:54.334Z,43.03
2022-12-03T06:41:56.914Z,41.72
2022-12-03T06:42:59.442Z,41.00
2022-12-03T06:44:02.285Z,43.45
2022-12-03T06:45:05.291Z,42.60
2022-12-03T06:46:07.889Z,40.27
2022-12-03T06:47:10.564Z,41.45
2022-12-03T06:48:13.136Z,41.60
2022-12-03T06:49:16.777Z,49.17
2022-12-03T06:50:19.326Z,50.70
2022-12-03T06:51:21.847Z,56.25
2022-12-03T06:52:24.765Z,62.40
2022-12-03T06:53:27.444Z,60.35
2022-12-03T06:54:30.381Z,68.20
2022-12-03T06:55:32.935Z,63.13
2022-12-03T06:56:41.825Z,65.13
2022-12-03T06:57:48.309Z,64.35
2022-12-03T06:58:50.923Z,71.25
2022-12-03T06:59:54.075Z,73.55
2022-12-03T07:00:56.803Z,77.65
2022-12-03T07:01:59.398Z,70.60
2022-12-03T07:03:02.082Z,74.82
2022-12-03T07:04:04.902Z,79.82
2022-12-03T07:05:08.079Z,72.30
2022-12-03T07:06:10.736Z,78.45
2022-12-03T07:07:14.249Z,80.60
2022-12-03T07:08:17.518Z,80.50
2022-12-03T07:09:20.228Z,82.28
2022-12-03T07:10:23.160Z,86.30
2022-12-03T07:11:31.810Z,90.62
2022-12-03T07:12:34.395Z,81.93
2022-12-03T07:13:36.901Z,83.18
2022-12-03T07:14:39.452Z,86.05
2022-12-03T07:15:42.437Z,85.80
2022-12-03T07:16:45.232Z,94.93
2022-12-03T07:17:47.886Z,94.43
2022-12-03T07:18:51.084Z,102.90
2022-12-03T07:19:53.966Z,104.05
2022-12-03T07:20:56.883Z,92.40
2022-12-03T07:21:59.474Z,87.75
2022-12-03T07:23:02.149Z,76.00
2022-12-03T07:24:05.636Z,75.62
2022-12-03T07:25:08.865Z,69.82
2022-12-03T07:26:12.212Z,71.50
2022-12-03T07:27:14.874Z,58.40
2022-12-03T07:28:17.441Z,49.03
2022-12-03T07:29:20.625Z,50.17
2022-12-03T07:30:24.358Z,48.38
2022-12-03T07:31:27.348Z,49.38
2022-12-03T07:32:30.636Z,50.28
2022-12-03T07:33:33.654Z,52.70
2022-12-03T07:34:36.217Z,48.50
2022-12-03T07:35:39.904Z,58.35
2022-12-03T07:36:43.375Z,62.42
2022-12-03T07:37:45.916Z,58.65
2022-12-03T07:38:48.969Z,59.90
2022-12-03T07:39:54.666Z,46.28
2022-12-03T07:40:57.209Z,50.90
2022-12-03T07:42:00.016Z,54.55
2022-12-03T07:43:02.999Z,56.88
2022-12-03T07:44:10.814Z,53.45
2022-12-03T07:45:17.002Z,53.95
2022-12-03T07:46:19.660Z,55.22
2022-12-03T07:47:22.842Z,58.20
2022-12-03T07:48:25.615Z,60.17
2022-12-03T07:49:28.142Z,57.40
2022-12-03T07:50:31.181Z,53.87
2022-12-03T07:51:33.781Z,53.05
2022-12-03T07:52:36.754Z,49.22
2022-12-03T07:53:40.023Z,52.30
2022-12-03T07:54:42.633Z,46.50
2022-12-03T07:55:45.229Z,47.42
2022-12-03T07:56:49.099Z,57.65
2022-12-03T07:57:52.078Z,49.92
2022-12-03T07:58:54.726Z,60.08
2022-12-03T07:59:57.870Z,56.43
2022-12-03T08:01:00.507Z,58.90
2022-12-03T08:02:03.771Z,50.42
2022-12-03T08:03:06.819Z,48.70
2022-12-03T08:04:09.430Z,44.65
2022-12-03T08:05:13.228Z,39.63
2022-12-03T08:06:15.899Z,42.55
2022-12-03T08:07:19.033Z,41.88
2022-12-03T08:08:21.657Z,59.83
2022-12-03T08:09:24.287Z,69.18
2022-12-03T08:10:27.418Z,49.63
2022-12-03T08:11:29.956Z,59.40
2022-12-03T08:12:42.282Z,85.43
2022-12-03T08:13:44.976Z,52.05
2022-12-03T08:14:47.879Z,52.62
2022-12-03T08:15:50.484Z,64.75
2022-12-03T08:16:53.507Z,58.53
2022-12-03T08:18:01.446Z,55.25
2022-12-03T08:19:09.250Z,46.53
2022-12-03T08:20:15.952Z,48.22
2022-12-03T08:21:21.114Z,80.43
2022-12-03T08:22:23.819Z,52.35
2022-12-03T08:23:26.705Z,57.40
2022-12-03T08:24:30.515Z,49.90
2022-12-03T08:25:33.766Z,39.20
2022-12-03T08:26:36.491Z,44.00
2022-12-03T08:27:39.531Z,46.40
2022-12-03T08:28:42.979Z,40.90
2022-12-03T08:29:46.732Z,45.85
2022-12-03T08:31:12.670Z,48.28
2022-12-03T08:32:15.363Z,48.40
2022-12-03T08:33:28.235Z,43.30
2022-12-03T08:34:38.933Z,43.03
2022-12-03T08:35:43.955Z,37.38
2022-12-03T08:36:50.665Z,42.75
2022-12-03T08:38:05.745Z,60.88
2022-12-03T08:39:33.646Z,107.20
2022-12-03T08:40:40.904Z,78.28
2022-12-03T08:42:01.856Z,49.85
2022-12-03T08:43:17.268Z,48.47
2022-12-03T08:44:29.265Z,46.13
2022-12-03T08:45:39.752Z,54.63
2022-12-03T08:46:43.118Z,75.05
2022-12-03T08:47:46.372Z,55.80
2022-12-03T08:48:49.802Z,50.22
2022-12-03T08:49:59.977Z,53.60
2022-12-03T08:51:32.258Z,47.38
2022-12-03T08:52:35.262Z,43.60
2022-12-03T08:53:42.630Z,51.25
2022-12-03T08:54:58.585Z,45.63
2022-12-03T08:56:13.074Z,48.53
2022-12-03T08:57:35.001Z,46.83
2022-12-03T08:58:46.954Z,44.55
2022-12-03T08:59:54.562Z,42.92
2022-12-03T09:01:24.564Z,36.03
2022-12-03T09:02:33.475Z,36.85
2022-12-03T09:03:37.015Z,55.10
2022-12-03T09:04:46.947Z,44.85
2022-12-03T09:05:50.282Z,44.60
2022-12-03T09:06:54.046Z,56.35
2022-12-03T09:07:56.883Z,54.57
2022-12-03T09:09:05.132Z,52.97
2022-12-03T09:10:11.362Z,54.08
2022-12-03T09:11:14.742Z,52.00
2022-12-03T09:12:17.480Z,79.70
2022-12-03T09:13:20.421Z,68.37
2022-12-03T09:14:23.783Z,67.10
2022-12-03T09:15:26.769Z,42.92
2022-12-03T09:16:29.796Z,43.63
2022-12-03T09:17:33.168Z,50.55
2022-12-03T09:18:35.924Z,45.40
2022-12-03T09:19:46.311Z,46.23
2022-12-03T09:20:49.960Z,38.83
2022-12-03T09:21:53.813Z,39.20
2022-12-03T09:22:56.769Z,38.92
2022-12-03T09:23:59.376Z,47.72
2022-12-03T09:25:04.950Z,41.70
2022-12-03T09:26:07.939Z,38.13
2022-12-03T09:27:11.119Z,44.10
2022-12-03T09:28:13.842Z,41.17
2022-12-03T09:29:16.435Z,44.90
2022-12-03T09:30:19.462Z,38.93
2022-12-03T09:31:22.460Z,39.85
2022-12-03T09:32:25.371Z,44.20
2022-12-03T09:33:28.376Z,52.97
2022-12-03T09:34:31.025Z,68.80
2022-12-03T09:35:33.757Z,74.65
2022-12-03T09:36:37.038Z,52.40
2022-12-03T09:37:39.647Z,46.78
2022-12-03T09:38:46.224Z,43.08
2022-12-03T09:39:51.190Z,41.53
2022-12-03T09:40:54.216Z,39.60
2022-12-03T09:41:57.814Z,40.03
2022-12-03T09:43:01.023Z,43.72
2022-12-03T09:44:05.150Z,42.65
2022-12-03T09:45:12.342Z,42.78
2022-12-03T09:46:15.297Z,38.88
2022-12-03T09:47:18.848Z,45.58
2022-12-03T09:48:22.485Z,40.85
2022-12-03T09:49:25.141Z,43.70
2022-12-03T09:50:28.355Z,49.77
2022-12-03T09:51:35.344Z,61.80
2022-12-03T09:52:38.231Z,59.75
2022-12-03T09:53:41.814Z,53.03
2022-12-03T09:54:47.578Z,45.95
2022-12-03T09:55:50.403Z,46.92
2022-12-03T09:56:55.143Z,46.25
2022-12-03T09:57:58.920Z,41.40
2022-12-03T09:59:02.498Z,37.40
2022-12-03T10:00:20.218Z,56.17
2022-12-03T10:01:25.833Z,46.77
2022-12-03T10:02:31.463Z,47.47
2022-12-03T10:03:34.081Z,44.97
2022-12-03T10:04:36.732Z,51.95
2022-12-03T10:05:43.798Z,42.90
2022-12-03T10:06:51.371Z,39.55
2022-12-03T10:08:03.671Z,40.25
2022-12-03T10:09:07.140Z,40.80
2022-12-03T10:10:22.738Z,38.75
2022-12-03T10:11:25.933Z,36.03
2022-12-03T10:12:29.299Z,43.87
2022-12-03T10:13:34.598Z,38.40
2022-12-03T10:14:37.264Z,45.65
2022-12-03T10:15:39.996Z,49.42
2022-12-03T10:16:43.065Z,39.15
2022-12-03T10:17:47.965Z,36.53
2022-12-03T10:18:56.186Z,38.88
2022-12-03T10:19:58.837Z,36.42
2022-12-03T10:21:02.141Z,39.30
2022-12-03T10:22:04.815Z,39.33
2022-12-03T10:23:07.654Z,44.20
2022-12-03T10:24:22.580Z,48.07
2022-12-03T10:25:25.149Z,49.60
2022-12-03T10:26:40.773Z,48.63
2022-12-03T10:27:55.126Z,49.05
2022-12-03T10:28:58.477Z,41.20
2022-12-03T10:30:03.916Z,41.50
2022-12-03T10:31:09.568Z,40.60
2022-12-03T10:32:12.898Z,38.97
2022-12-03T10:33:19.033Z,43.75
2022-12-03T10:34:30.787Z,50.37
2022-12-03T10:35:44.266Z,39.20
2022-12-03T10:36:47.201Z,42.75
2022-12-03T10:38:00.532Z,45.28
2022-12-03T10:39:08.615Z,41.30
2022-12-03T10:40:12.412Z,38.10
2022-12-03T10:41:30.304Z,40.63
2022-12-03T10:42:34.461Z,38.35
2022-12-03T10:43:37.581Z,45.88
2022-12-03T10:44:40.228Z,41.53
2022-12-03T10:45:44.537Z,39.03
2022-12-03T10:47:07.704Z,38.87
2022-12-03T10:48:27.521Z,40.08
2022-12-03T10:49:30.720Z,36.33
2022-12-03T10:50:34.658Z,37.50
2022-12-03T10:51:39.245Z,35.95
2022-12-03T10:52:42.347Z,37.53
2022-12-03T10:53:44.925Z,34.42
2022-12-03T10:54:49.956Z,37.85
2022-12-03T10:55:58.831Z,42.17
2022-12-03T10:57:02.182Z,50.87
2022-12-03T10:58:05.310Z,43.10
2022-12-03T10:59:18.425Z,36.67
2022-12-03T11:00:21.532Z,39.20
2022-12-03T11:01:26.546Z,36.42
2022-12-03T11:02:29.505Z,36.83
2022-12-03T11:03:37.284Z,36.67
2022-12-03T11:04:41.022Z,41.35
2022-12-03T11:05:43.606Z,37.00
2022-12-03T11:06:48.450Z,38.05
2022-12-03T11:07:51.348Z,33.20
2022-12-03T11:08:59.447Z,35.97
2022-12-03T11:10:07.350Z,34.38
2022-12-03T11:11:19.766Z,38.38
2022-12-03T11:12:34.672Z,42.80
2022-12-03T11:13:37.786Z,39.75
2022-12-03T11:14:56.654Z,38.05
2022-12-03T11:16:05.711Z,32.15
2022-12-03T11:17:08.596Z,32.60
2022-12-03T11:18:11.252Z,30.92
2022-12-03T11:19:45.424Z,35.63
2022-12-03T11:20:47.978Z,34.40
2022-12-03T11:22:05.961Z,40.72
2022-12-03T11:23:10.575Z,36.20
2022-12-03T11:24:19.924Z,31.23
2022-12-03T11:25:25.734Z,36.40
2022-12-03T11:26:28.860Z,34.72
2022-12-03T11:27:31.515Z,33.30
2022-12-03T11:28:36.690Z,33.20
2022-12-03T11:29:44.906Z,38.50
2022-12-03T11:30:51.070Z,41.93
2022-12-03T11:31:54.247Z,42.93
2022-12-03T11:33:00.913Z,35.88
2022-12-03T11:34:18.570Z,30.67
2022-12-03T11:35:24.165Z,35.17
2022-12-03T11:36:42.290Z,32.60
2022-12-03T11:37:50.333Z,33.53
2022-12-03T11:38:55.819Z,37.45
2022-12-03T11:40:00.805Z,36.47
2022-12-03T11:41:15.133Z,64.80
2022-12-03T11:42:26.652Z,44.93
2022-12-03T11:43:57.760Z,45.80
2022-12-03T11:45:06.171Z,35.90
2022-12-03T11:46:10.325Z,32.42
2022-12-03T11:47:16.175Z,33.88
2022-12-03T11:48:20.156Z,32.80
2022-12-03T11:49:29.916Z,35.05
2022-12-03T11:50:40.553Z,32.78
2022-12-03T11:51:44.846Z,28.50
2022-12-03T11:53:02.094Z,38.63
2022-12-03T11:54:05.382Z,48.73
2022-12-03T11:55:25.705Z,51.93
2022-12-03T11:56:29.911Z,43.78
2022-12-03T11:57:38.490Z,48.80
2022-12-03T11:58:43.723Z,38.03
2022-12-03T12:00:01.280Z,35.00
2022-12-03T12:01:06.539Z,29.50
2022-12-03T12:02:24.843Z,30.70
2022-12-03T12:03:35.823Z,28.83
2022-12-03T12:04:38.493Z,31.98
2022-12-03T12:05:41.475Z,28.17
2022-12-03T12:06:47.485Z,30.53
2022-12-03T12:07:55.650Z,30.67
2022-12-03T12:08:59.605Z,35.65
2022-12-03T12:10:03.564Z,28.87
2022-12-03T12:11:29.537Z,30.52
2022-12-03T12:12:38.837Z,27.55
2022-12-03T12:13:41.599Z,29.75
2022-12-03T12:14:44.160Z,72.72
2022-12-03T12:15:47.601Z,87.97
2022-12-03T12:16:55.408Z,53.20
2022-12-03T12:18:36.345Z,75.33
2022-12-03T12:19:43.379Z,49.42
2022-12-03T12:20:46.229Z,40.45
2022-12-03T12:21:49.992Z,28.23
2022-12-03T12:22:54.886Z,25.95
2022-12-03T12:23:57.376Z,29.33
2022-12-03T12:25:40.340Z,32.08
2022-12-03T12:26:51.343Z,32.50
2022-12-03T12:27:55.181Z,32.60
2022-12-03T12:28:57.917Z,27.20
2022-12-03T12:30:10.312Z,34.23
2022-12-03T12:31:12.920Z,34.17
2022-12-03T12:32:17.718Z,41.53
2022-12-03T12:33:23.539Z,28.98
2022-12-03T12:34:26.363Z,33.00
2022-12-03T12:35:32.955Z,34.08
2022-12-03T12:36:35.613Z,35.88
2022-12-03T12:38:07.995Z,33.38
2022-12-03T12:39:14.713Z,34.90
2022-12-03T12:40:18.396Z,82.83
2022-12-03T12:41:21.187Z,46.40
2022-12-03T12:42:23.690Z,60.10
2022-12-03T12:43:29.676Z,40.40
2022-12-03T12:44:32.273Z,32.10
2022-12-03T12:45:37.077Z,31.42
2022-12-03T12:46:48.345Z,37.95
2022-12-03T12:48:10.084Z,45.10
2022-12-03T12:49:15.685Z,34.25
2022-12-03T12:50:19.157Z,47.80
2022-12-03T12:51:22.116Z,52.43
2022-12-03T12:52:25.441Z,63.23
2022-12-03T12:53:30.885Z,60.17
2022-12-03T12:54:33.460Z,74.12
2022-12-03T12:55:36.151Z,41.67
2022-12-03T12:56:42.198Z,49.13
2022-12-03T12:57:45.209Z,41.13
2022-12-03T12:58:48.042Z,30.52
2022-12-03T12:59:52.742Z,39.65
2022-12-03T13:01:06.174Z,32.67
2022-12-03T13:02:30.529Z,29.60
2022-12-03T13:03:37.006Z,34.77
2022-12-03T13:04:40.306Z,67.60
2022-12-03T13:05:45.977Z,40.20
2022-12-03T13:06:53.431Z,45.50
2022-12-03T13:07:56.248Z,42.85
2022-12-03T13:09:01.301Z,43.97
2022-12-03T13:10:26.747Z,36.38
2022-12-03T13:11:45.976Z,36.17
2022-12-03T13:12:49.026Z,35.85
2022-12-03T13:13:52.641Z,51.10
2022-12-03T13:14:59.546Z,66.33
2022-12-03T13:16:07.324Z,69.62
2022-12-03T13:17:22.604Z,95.68
2022-12-03T13:19:03.318Z,67.50
2022-12-03T13:20:18.936Z,110.65
2022-12-03T13:21:22.199Z,57.55
2022-12-03T13:22:25.672Z,82.53
2022-12-03T13:23:30.370Z,46.88
2022-12-03T13:24:34.602Z,77.80
2022-12-03T13:27:21.651Z,47.90
2022-12-03T13:28:24.740Z,51.35
2022-12-03T13:29:28.213Z,45.58
2022-12-03T13:30:30.910Z,48.72
2022-12-03T13:31:41.879Z,48.33
2022-12-03T13:32:46.257Z,47.22
2022-12-03T13:33:49.840Z,57.62
2022-12-03T13:34:52.487Z,89.68
2022-12-03T13:35:58.252Z,54.00
2022-12-03T13:37:02.124Z,74.43
2022-12-03T13:38:13.800Z,87.53
2022-12-03T13:39:22.774Z,49.50
2022-12-03T13:40:35.096Z,49.95
2022-12-03T13:41:56.642Z,50.95
2022-12-03T13:42:59.566Z,57.17
2022-12-03T13:44:06.543Z,73.70
2022-12-03T13:45:13.569Z,93.93
2022-12-03T13:46:16.494Z,107.22
2022-12-03T13:47:22.819Z,116.53
2022-12-03T13:48:34.577Z,105.97
2022-12-03T13:49:37.370Z,121.17
2022-12-03T13:50:44.564Z,213.82
2022-12-03T13:51:47.572Z,264.38
2022-12-03T13:52:51.714Z,202.87
2022-12-03T13:53:54.951Z,98.18
2022-12-03T13:54:57.578Z,94.87
2022-12-03T13:56:15.201Z,95.65
2022-12-03T13:57:17.826Z,68.50
2022-12-03T13:58:20.904Z,78.05
2022-12-03T13:59:26.343Z,68.57
2022-12-03T14:00:29.607Z,103.40
2022-12-03T14:01:32.865Z,102.87
2022-12-03T14:02:35.490Z,111.93
2022-12-03T14:03:38.577Z,139.25
2022-12-03T14:04:41.774Z,99.93
2022-12-03T14:05:44.314Z,93.12
2022-12-03T14:06:47.777Z,92.28